Here is the Quick Look data you requested

The Data originates at the National Weather Service, and is made available here by the UAlbany Department of Atmospheric and Environmental Sciences

Surface Observations

KPVD 180251Z 16004KT 10SM FEW010 FEW300 18/16 A3007 RMK AO2 SLP182 T01830161
 54000=
KSFZ 180256Z AUTO VRB03KT 10SM CLR 19/13 A3007 RMK AO2 SLP126 T01940133 58002=
KUUU 180253Z AUTO 19004KT 10SM CLR 18/16 A3007 RMK AO2 SLP182 T01780161 53000=
KWST 180253Z AUTO 19003KT 8SM CLR 18/17 A3008 RMK AO2 SLP186 T01830172 56002=